Moore Haven, Florida
Current Conditions -  °F | °C
As of 1:15 PM on Tuesday 21 Oct 2014 (Local Time) from KIMM Reporting Station
Scattered Clouds Scattered Clouds  
Wind Chill: 82°   Ceiling: Unl
Heat Index: 94°   Visibility: 7mi
Dew Point: 81°   Wind: 8mph
Humidity: 94%   Direction: 190°S
Pressure: 29.97"   Gusts: NA
Location:  26.83°N, 81.09°W
Report Text: KIMM 211715Z AUTO 19007KT 7SM FEW017 SCT043 28/27 A2997 RMK A01 P000
Loading
Personal Weather Stations






























Interactive Weather Map
Tropical Storm Tracking
New forecast layout! Learn more

10-Day Weather Forecast

Advertisements
Track Severe Weather on mobile